Time;durP1;ratioP1;P1;durP2;ratioP2;P2;SDS_P1;SDS_P2;PMS_P1;PMS_P2;Temp;Humidity;BMP_temperature;BMP_pressure;BME280_temperature;BME280_humidity;BME280_pressure;Samples;Min_cycle;Max_cycle;Signal;HPM_P1;HPM_P2
2023/01/27 00:00:58;;;;;;;1.80;1.70;;;-0.90;1.00;;;;;;4999785;28;20434;-68
2023/01/27 00:03:27;;;;;;;1.60;1.10;;;-0.90;1.00;;;;;;5004187;28;21022;-68
2023/01/27 00:05:54;;;;;;;0.90;0.63;;;-0.80;1.00;;;;;;5000783;28;20998;-68
2023/01/27 00:08:22;;;;;;;0.77;0.68;;;-0.80;1.00;;;;;;4997115;28;20476;-68
2023/01/27 00:13:25;;;;;;;5.18;1.48;;;-0.80;1.00;;;;;;5001328;28;20452;-68
2023/01/27 00:13:44;;;;;;;2.50;1.30;;;-0.80;1.00;;;;;;5004917;28;20468;-67
2023/01/27 00:16:10;;;;;;;0.75;0.65;;;-0.80;1.00;;;;;;4994118;28;20488;-67
2023/01/27 00:18:37;;;;;;;1.60;1.50;;;-0.80;1.00;;;;;;5001268;28;20930;-66
2023/01/27 00:26:37;;;;;;;1.10;0.93;;;-0.80;1.00;;;;;;5007507;28;20532;-66
2023/01/27 00:29:04;;;;;;;1.70;1.10;;;-0.70;1.00;;;;;;4994716;28;20882;-66
2023/01/27 00:34:16;;;;;;;4.25;1.45;;;-0.60;1.00;;;;;;4993789;28;20466;-66
2023/01/27 00:36:43;;;;;;;1.33;0.95;;;-0.60;1.00;;;;;;5003139;28;20438;-66
2023/01/27 00:39:11;;;;;;;2.30;0.60;;;-0.60;1.00;;;;;;5004324;28;20432;-66
2023/01/27 00:41:41;;;;;;;0.85;0.85;;;-0.60;1.00;;;;;;4997140;28;20433;-66
2023/01/27 00:44:11;;;;;;;0.60;0.60;;;-0.50;1.00;;;;;;5000925;28;21144;-66
2023/01/27 00:46:40;;;;;;;0.57;0.57;;;-0.50;1.00;;;;;;5001077;28;20457;-66
2023/01/27 00:49:08;;;;;;;1.40;1.27;;;-0.50;1.00;;;;;;4997731;28;20496;-66
2023/01/27 00:51:35;;;;;;;3.20;1.50;;;-0.50;1.00;;;;;;5000777;28;20440;-66
2023/01/27 00:54:03;;;;;;;1.55;1.33;;;-0.50;1.00;;;;;;5001071;28;20436;-67
2023/01/27 00:56:30;;;;;;;2.22;1.08;;;-0.50;1.00;;;;;;4999241;28;20434;-66
2023/01/27 00:58:58;;;;;;;3.85;1.17;;;-0.50;1.00;;;;;;5003014;28;20434;-66
2023/01/27 01:01:25;;;;;;;0.40;0.40;;;-0.50;1.00;;;;;;4999358;28;20429;-66
2023/01/27 01:03:52;;;;;;;0.80;0.80;;;-0.60;1.00;;;;;;4997758;28;20426;-66
2023/01/27 01:06:19;;;;;;;2.10;0.73;;;-0.60;1.00;;;;;;5005141;28;20967;-66
2023/01/27 01:08:46;;;;;;;4.93;1.20;;;-0.70;1.00;;;;;;4993897;28;20446;-66
2023/01/27 01:11:15;;;;;;;1.70;0.98;;;-0.70;1.00;;;;;;5000687;28;20462;-66
2023/01/27 01:13:45;;;;;;;2.35;1.20;;;-0.70;1.00;;;;;;5000089;28;20523;-66
2023/01/27 01:16:12;;;;;;;1.08;0.93;;;-0.70;1.00;;;;;;4995434;28;20518;-67
2023/01/27 01:18:39;;;;;;;2.70;1.05;;;-0.70;1.00;;;;;;5019264;28;20449;-66
2023/01/27 01:21:11;;;;;;;1.85;0.85;;;-0.70;1.00;;;;;;5013744;28;20443;-67
2023/01/27 01:23:40;;;;;;;1.20;0.63;;;-0.70;1.00;;;;;;4999759;28;20440;-66
2023/01/27 01:26:10;;;;;;;1.20;1.10;;;-0.60;1.00;;;;;;4991743;28;20454;-66
2023/01/27 01:28:37;;;;;;;5.30;1.13;;;-0.60;1.00;;;;;;4997921;28;20436;-66
2023/01/27 01:31:09;;;;;;;4.10;1.17;;;-0.70;1.00;;;;;;5003931;28;20444;-66
2023/01/27 01:33:37;;;;;;;1.33;1.33;;;-0.70;1.00;;;;;;5005996;28;20460;-66
2023/01/27 01:36:05;;;;;;;4.10;1.20;;;-0.70;1.00;;;;;;5007854;28;20457;-66
2023/01/27 01:38:32;;;;;;;0.82;0.77;;;-0.70;1.00;;;;;;5006697;28;20451;-66
2023/01/27 01:40:59;;;;;;;2.60;1.10;;;-0.70;1.00;;;;;;5007031;28;20511;-66
2023/01/27 01:43:26;;;;;;;1.48;1.10;;;-0.70;1.00;;;;;;4996121;28;20430;-66
2023/01/27 01:45:56;;;;;;;2.10;1.17;;;-0.70;1.00;;;;;;5003394;28;20437;-66
2023/01/27 01:48:25;;;;;;;2.03;1.07;;;-0.70;1.00;;;;;;4999303;28;20437;-66
2023/01/27 01:51:15;;;;;;;0.80;0.80;;;-0.70;1.00;;;;;;5006444;28;20440;-66
2023/01/27 01:53:50;;;;;;;2.22;1.13;;;-0.70;1.00;;;;;;4994977;28;20421;-66
2023/01/27 01:56:22;;;;;;;3.55;1.33;;;-0.70;1.00;;;;;;4998662;28;20425;-66
2023/01/27 01:58:50;;;;;;;1.10;1.10;;;-0.70;1.00;;;;;;5002147;28;20493;-66
2023/01/27 02:01:17;;;;;;;3.53;0.85;;;-0.70;1.00;;;;;;4994893;28;20530;-66
2023/01/27 02:03:49;;;;;;;1.20;1.05;;;-0.70;1.00;;;;;;4999972;28;20430;-66
2023/01/27 02:06:16;;;;;;;1.23;1.17;;;-0.70;1.00;;;;;;5016801;28;20434;-66
2023/01/27 02:08:46;;;;;;;0.77;0.77;;;-0.70;1.00;;;;;;5000679;28;20519;-66
2023/01/27 02:11:13;;;;;;;0.98;0.88;;;-0.70;1.00;;;;;;5004615;28;20439;-66
2023/01/27 02:13:40;;;;;;;3.20;1.92;;;-0.70;1.00;;;;;;5000401;28;20438;-67
2023/01/27 02:16:08;;;;;;;1.60;1.50;;;-0.70;1.00;;;;;;4996816;28;20434;-66
2023/01/27 02:18:40;;;;;;;2.65;0.82;;;-0.70;1.00;;;;;;5002533;28;20978;-67
2023/01/27 02:21:07;;;;;;;2.25;0.63;;;-0.70;1.00;;;;;;4998686;28;20458;-66
2023/01/27 02:23:55;;;;;;;5.47;0.98;;;-0.70;1.00;;;;;;5006731;28;20442;-66
2023/01/27 02:26:35;;;;;;;0.55;0.55;;;-0.70;1.00;;;;;;4998883;28;20433;-67
2023/01/27 02:29:05;;;;;;;2.30;1.65;;;-0.70;1.00;;;;;;4997752;28;20946;-66
2023/01/27 02:31:31;;;;;;;0.80;0.80;;;-0.60;1.00;;;;;;4999885;28;20931;-67
2023/01/27 02:34:07;;;;;;;1.40;1.02;;;-0.70;1.00;;;;;;4997874;28;20441;-66
2023/01/27 02:36:41;;;;;;;3.80;1.30;;;-0.70;1.00;;;;;;5000204;28;20520;-66
2023/01/27 02:39:11;;;;;;;0.70;0.70;;;-0.70;1.00;;;;;;4995013;28;20427;-67
2023/01/27 02:41:49;;;;;;;4.93;0.95;;;-0.70;1.00;;;;;;5002170;28;20519;-67
2023/01/27 02:44:16;;;;;;;1.88;1.20;;;-0.70;1.00;;;;;;4998208;28;20455;-66
2023/01/27 02:46:43;;;;;;;0.60;0.60;;;-0.70;1.00;;;;;;4993261;28;20425;-67
2023/01/27 02:49:10;;;;;;;2.50;0.80;;;-0.70;1.00;;;;;;4995845;28;20479;-67
2023/01/27 02:51:39;;;;;;;3.50;0.70;;;-0.70;1.00;;;;;;4992986;28;20494;-67
2023/01/27 02:54:06;;;;;;;0.85;0.80;;;-0.70;2.30;;;;;;4995111;28;20440;-67
2023/01/27 02:56:33;;;;;;;0.93;0.93;;;-0.60;5.60;;;;;;4994735;28;20467;-67
2023/01/27 02:59:00;;;;;;;2.00;1.30;;;-0.60;8.90;;;;;;4993288;28;20430;-67
2023/01/27 03:01:27;;;;;;;1.23;1.23;;;-0.60;7.80;;;;;;4991155;28;20439;-67
2023/01/27 03:03:53;;;;;;;1.40;1.30;;;-0.50;5.80;;;;;;4991594;28;20431;-67
2023/01/27 03:06:23;;;;;;;1.63;0.85;;;-0.50;3.80;;;;;;4997982;28;20921;-67
2023/01/27 03:08:50;;;;;;;2.28;0.77;;;-0.50;4.60;;;;;;4992432;28;20433;-67
2023/01/27 03:12:18;;;;;;;1.02;0.93;;;-0.50;6.60;;;;;;4999631;28;20847;-67
2023/01/27 03:14:03;;;;;;;0.90;0.90;;;-0.50;10.30;;;;;;4997237;28;20937;-67
2023/01/27 03:19:15;;;;;;;2.05;0.70;;;-0.50;14.40;;;;;;4995082;28;20937;-67
2023/01/27 03:21:49;;;;;;;1.80;1.70;;;-0.50;18.10;;;;;;4997996;28;21188;-67
2023/01/27 03:24:16;;;;;;;2.70;0.67;;;-0.60;20.40;;;;;;5000194;28;20430;-67
2023/01/27 03:26:43;;;;;;;1.40;1.30;;;-0.50;23.00;;;;;;5000394;28;20436;-67
2023/01/27 03:31:56;;;;;;;1.17;1.17;;;-0.50;25.70;;;;;;5007342;28;20852;-67
2023/01/27 03:34:23;;;;;;;1.02;0.80;;;-0.50;28.10;;;;;;4995655;28;20496;-67
2023/01/27 03:47:52;;;;;;;1.20;0.90;;;-0.40;22.50;;;;;;4995288;28;20430;-67
2023/01/27 03:50:19;;;;;;;0.60;0.60;;;-0.40;24.50;;;;;;4995901;28;20462;-67
2023/01/27 03:53:01;;;;;;;7.57;1.30;;;-0.40;24.90;;;;;;5004782;28;20435;-67
2023/01/27 03:55:33;;;;;;;1.25;0.98;;;-0.40;27.00;;;;;;5002309;28;20438;-67
2023/01/27 03:58:21;;;;;;;1.25;0.80;;;-0.30;28.30;;;;;;5004800;28;20437;-67
2023/01/27 04:00:52;;;;;;;3.05;1.10;;;-0.30;27.50;;;;;;4995714;28;20432;-67
2023/01/27 04:09:01;;;;;;;1.58;0.80;;;-0.20;34.90;;;;;;4998491;28;20841;-67
2023/01/27 04:14:15;;;;;;;0.60;0.60;;;-0.20;36.30;;;;;;5006361;28;20527;-67
2023/01/27 04:16:41;;;;;;;2.75;0.63;;;-0.20;39.30;;;;;;5013951;28;20437;-67
2023/01/27 04:19:09;;;;;;;0.88;0.88;;;-0.20;40.10;;;;;;5013715;28;20458;-67
2023/01/27 04:21:36;;;;;;;0.80;0.80;;;-0.20;42.10;;;;;;5003232;28;21124;-67
2023/01/27 04:24:15;;;;;;;0.45;0.45;;;-0.20;44.70;;;;;;4991785;28;20430;-67
2023/01/27 04:26:44;;;;;;;0.88;0.80;;;-0.20;45.30;;;;;;4998167;28;20439;-67
2023/01/27 04:29:12;;;;;;;0.53;0.53;;;-0.20;47.00;;;;;;5011927;28;20557;-67
2023/01/27 04:31:39;;;;;;;2.90;1.20;;;-0.20;50.20;;;;;;4999379;28;20781;-67
2023/01/27 04:34:07;;;;;;;8.57;1.17;;;-0.20;52.00;;;;;;4996894;28;20446;-67
2023/01/27 04:36:34;;;;;;;0.70;0.70;;;-0.20;52.80;;;;;;5011157;28;20479;-67
2023/01/27 04:39:00;;;;;;;0.60;0.52;;;-0.20;53.90;;;;;;5007126;28;20801;-67
2023/01/27 04:41:28;;;;;;;0.73;0.52;;;-0.10;54.60;;;;;;4992068;28;20426;-67
2023/01/27 04:43:54;;;;;;;0.70;0.70;;;-0.10;55.40;;;;;;5002798;28;20519;-67
2023/01/27 04:46:21;;;;;;;1.50;0.80;;;0.00;56.90;;;;;;5005434;28;20448;-67
2023/01/27 04:48:48;;;;;;;0.50;0.50;;;0.00;57.80;;;;;;5012073;28;20436;-67
2023/01/27 04:51:15;;;;;;;1.38;0.40;;;0.10;57.30;;;;;;5011959;28;20800;-67
2023/01/27 04:53:42;;;;;;;0.40;0.40;;;0.10;55.30;;;;;;5003352;28;20519;-67
2023/01/27 04:56:25;;;;;;;1.40;0.90;;;0.10;51.60;;;;;;5000771;28;20454;-67
2023/01/27 04:58:51;;;;;;;2.20;0.47;;;0.10;50.80;;;;;;5008716;28;20436;-67
2023/01/27 05:01:20;;;;;;;0.97;0.97;;;0.10;47.40;;;;;;5010393;28;20436;-67
2023/01/27 05:03:47;;;;;;;1.90;1.10;;;0.20;44.70;;;;;;5009526;28;20437;-67
2023/01/27 05:06:15;;;;;;;0.63;0.63;;;0.10;42.00;;;;;;5003331;28;20452;-67
2023/01/27 05:08:42;;;;;;;0.40;0.40;;;0.10;41.10;;;;;;5000366;28;20435;-67
2023/01/27 05:11:10;;;;;;;0.43;0.43;;;0.20;43.80;;;;;;5013312;28;20451;-67
2023/01/27 05:13:37;;;;;;;2.00;0.77;;;0.20;44.10;;;;;;5010165;28;20440;-67
2023/01/27 05:16:04;;;;;;;0.50;0.50;;;0.20;42.10;;;;;;5011352;28;20471;-67
2023/01/27 05:18:34;;;;;;;0.30;0.30;;;0.20;42.30;;;;;;4996820;28;20470;-67
2023/01/27 05:21:02;;;;;;;0.30;0.30;;;0.20;42.70;;;;;;5001975;28;20432;-67
2023/01/27 05:23:35;;;;;;;0.20;0.20;;;0.20;45.10;;;;;;5002027;28;20441;-67
2023/01/27 05:26:14;;;;;;;0.50;0.50;;;0.10;46.60;;;;;;5023178;28;20435;-67
2023/01/27 05:28:44;;;;;;;0.50;0.50;;;0.10;47.60;;;;;;5003139;28;20442;-67
2023/01/27 05:31:13;;;;;;;0.50;0.50;;;0.00;43.00;;;;;;5005605;28;20443;-67
2023/01/27 05:33:41;;;;;;;0.93;0.93;;;0.00;40.40;;;;;;5008152;28;20435;-67
2023/01/27 05:36:11;;;;;;;0.95;0.60;;;-0.10;40.60;;;;;;5002421;28;20452;-67
2023/01/27 05:38:39;;;;;;;0.80;0.80;;;-0.20;42.80;;;;;;5000775;28;20430;-67
2023/01/27 05:41:08;;;;;;;2.30;0.40;;;-0.10;44.00;;;;;;5004667;28;20434;-67
2023/01/27 05:43:36;;;;;;;0.50;0.50;;;-0.20;46.40;;;;;;4990737;28;20927;-67
2023/01/27 05:46:13;;;;;;;0.60;0.60;;;-0.20;48.60;;;;;;5000143;28;20437;-67
2023/01/27 05:48:46;;;;;;;0.80;0.80;;;-0.20;49.60;;;;;;5005379;28;20460;-67
2023/01/27 05:51:14;;;;;;;1.45;1.35;;;-0.20;49.60;;;;;;4998986;28;21041;-67
2023/01/27 05:53:42;;;;;;;1.67;1.05;;;-0.20;50.30;;;;;;5006124;28;21090;-67
2023/01/27 05:56:11;;;;;;;1.30;0.90;;;-0.20;52.40;;;;;;5007282;28;20439;-69
2023/01/27 05:58:38;;;;;;;1.33;0.83;;;-0.20;54.70;;;;;;5003477;28;20834;-66
2023/01/27 06:01:29;;;;;;;1.17;0.82;;;-0.20;58.90;;;;;;4998400;28;20511;-67
2023/01/27 06:03:56;;;;;;;1.02;1.02;;;-0.20;62.40;;;;;;4999261;28;20439;-67
2023/01/27 06:06:25;;;;;;;0.50;0.50;;;-0.10;62.90;;;;;;4996688;28;20438;-67
2023/01/27 06:08:52;;;;;;;1.13;0.90;;;-0.10;65.30;;;;;;5010004;28;20440;-66
2023/01/27 06:11:20;;;;;;;5.60;0.90;;;-0.10;65.10;;;;;;5000319;28;20440;-66
2023/01/27 06:13:47;;;;;;;1.20;0.32;;;-0.10;64.60;;;;;;5002483;28;20457;-66
2023/01/27 06:16:18;;;;;;;0.90;0.90;;;-0.10;64.40;;;;;;4996217;28;21030;-67
2023/01/27 06:18:47;;;;;;;1.20;0.80;;;-0.10;67.30;;;;;;4993356;28;20440;-66
2023/01/27 06:21:16;;;;;;;0.55;0.55;;;-0.10;71.70;;;;;;4998787;28;20529;-66
2023/01/27 06:23:43;;;;;;;2.63;1.08;;;0.00;76.40;;;;;;5002645;28;21254;-66
2023/01/27 06:26:12;;;;;;;0.40;0.40;;;0.00;79.50;;;;;;5002502;28;20434;-66
2023/01/27 06:28:39;;;;;;;2.00;0.60;;;0.00;82.80;;;;;;5021563;28;20433;-66
2023/01/27 06:31:06;;;;;;;0.80;0.80;;;0.00;86.20;;;;;;4999337;28;20530;-66
2023/01/27 06:33:33;;;;;;;1.60;1.10;;;-0.10;88.30;;;;;;5007337;28;20780;-66
2023/01/27 06:36:06;;;;;;;2.40;1.05;;;0.00;87.80;;;;;;5005818;28;20468;-66
2023/01/27 06:38:33;;;;;;;0.77;0.77;;;0.00;83.90;;;;;;4996991;28;20442;-67
2023/01/27 06:41:00;;;;;;;2.20;1.10;;;0.00;85.30;;;;;;4996273;28;20469;-66
2023/01/27 06:43:27;;;;;;;1.35;1.00;;;0.00;87.30;;;;;;5000295;28;20432;-66
2023/01/27 06:45:56;;;;;;;0.73;0.70;;;0.10;89.50;;;;;;5008938;28;20464;-66
2023/01/27 06:48:24;;;;;;;0.68;0.68;;;0.10;89.80;;;;;;5002161;28;20433;-66
2023/01/27 06:50:52;;;;;;;1.98;1.08;;;0.10;90.30;;;;;;4997972;28;20432;-67
2023/01/27 06:53:19;;;;;;;0.60;0.60;;;0.10;91.00;;;;;;5001771;28;20531;-66
2023/01/27 06:55:46;;;;;;;0.60;0.60;;;0.20;91.00;;;;;;4996480;28;20438;-66
2023/01/27 06:58:15;;;;;;;4.00;1.23;;;0.20;90.50;;;;;;5000700;28;21658;-67
2023/01/27 07:00:42;;;;;;;0.60;0.60;;;0.20;90.50;;;;;;5005568;28;20519;-66
2023/01/27 07:03:11;;;;;;;0.77;0.77;;;0.30;89.80;;;;;;5008585;28;20430;-67
2023/01/27 07:05:39;;;;;;;1.85;1.75;;;0.30;89.70;;;;;;5006227;28;20525;-66
2023/01/27 07:08:07;;;;;;;1.25;1.08;;;0.30;90.30;;;;;;5002600;28;20467;-67
2023/01/27 07:10:34;;;;;;;2.78;0.85;;;0.30;90.30;;;;;;5004736;28;20448;-66
2023/01/27 07:13:07;;;;;;;2.65;1.23;;;0.30;91.70;;;;;;5005596;28;21013;-66
2023/01/27 07:15:36;;;;;;;0.93;0.93;;;0.30;93.00;;;;;;5007986;28;20446;-66
2023/01/27 07:18:03;;;;;;;0.68;0.68;;;0.30;94.00;;;;;;5001864;28;20942;-66
2023/01/27 07:20:31;;;;;;;0.95;0.95;;;0.30;94.40;;;;;;5001334;28;20428;-66
2023/01/27 07:23:02;;;;;;;1.83;0.93;;;0.30;94.90;;;;;;4995108;28;20444;-66
2023/01/27 07:25:31;;;;;;;1.00;0.90;;;0.30;95.00;;;;;;4995098;28;20531;-67
2023/01/27 07:27:59;;;;;;;1.40;1.30;;;0.30;96.00;;;;;;4997855;28;20437;-66
2023/01/27 07:30:26;;;;;;;1.77;1.67;;;0.30;96.40;;;;;;5002277;28;20437;-66
2023/01/27 07:32:54;;;;;;;0.70;0.70;;;0.30;97.40;;;;;;4996173;28;20459;-66
2023/01/27 07:35:22;;;;;;;2.63;1.65;;;0.30;98.50;;;;;;5002135;28;20431;-66
2023/01/27 07:37:49;;;;;;;8.10;1.30;;;0.40;99.20;;;;;;5006603;28;22390;-66
2023/01/27 07:40:17;;;;;;;2.15;1.40;;;0.40;99.90;;;;;;4997366;28;20521;-66
2023/01/27 07:42:43;;;;;;;1.40;0.93;;;0.30;99.90;;;;;;5007572;28;20437;-66
2023/01/27 07:45:10;;;;;;;1.50;1.40;;;0.40;99.90;;;;;;5004918;28;20831;-66
2023/01/27 07:47:37;;;;;;;1.30;0.93;;;0.40;99.90;;;;;;5013122;28;20448;-66
2023/01/27 07:50:04;;;;;;;1.20;0.73;;;0.40;99.90;;;;;;5002311;28;20439;-66
2023/01/27 07:52:31;;;;;;;0.77;0.77;;;0.40;99.90;;;;;;5007997;28;20433;-66
2023/01/27 07:55:01;;;;;;;2.20;0.70;;;0.50;99.90;;;;;;5005264;28;20836;-66
2023/01/27 07:57:27;;;;;;;0.95;0.68;;;0.60;99.90;;;;;;5004039;28;20437;-66
2023/01/27 07:59:55;;;;;;;0.60;0.60;;;0.60;99.90;;;;;;5002158;28;20439;-66
2023/01/27 08:02:22;;;;;;;0.50;0.50;;;0.70;99.90;;;;;;4999784;28;20991;-67
2023/01/27 08:04:49;;;;;;;0.35;0.35;;;0.70;99.90;;;;;;5005424;28;20547;-66
2023/01/27 08:07:20;;;;;;;1.23;0.93;;;0.70;99.90;;;;;;5005343;28;20432;-68
2023/01/27 08:09:47;;;;;;;0.47;0.47;;;0.80;99.90;;;;;;5002164;28;20443;-66
2023/01/27 08:12:16;;;;;;;0.95;0.95;;;0.80;99.90;;;;;;5003484;28;20440;-67
2023/01/27 08:14:42;;;;;;;0.73;0.73;;;0.90;99.90;;;;;;5016579;28;20432;-66
2023/01/27 08:17:09;;;;;;;1.70;0.77;;;0.90;99.90;;;;;;5012584;28;20454;-66
2023/01/27 08:19:36;;;;;;;0.35;0.35;;;0.90;99.90;;;;;;5001813;28;20445;-66
2023/01/27 08:22:05;;;;;;;0.83;0.83;;;0.90;99.90;;;;;;5009080;28;20428;-66
2023/01/27 08:24:32;;;;;;;0.70;0.70;;;1.00;99.90;;;;;;5002039;28;20437;-67
2023/01/27 08:27:02;;;;;;;1.05;0.98;;;1.00;99.90;;;;;;5003603;28;20434;-68
2023/01/27 08:29:32;;;;;;;0.32;0.32;;;1.00;99.90;;;;;;5004569;28;20447;-66
2023/01/27 08:31:58;;;;;;;0.40;0.40;;;1.00;99.90;;;;;;5002456;28;20444;-67
2023/01/27 08:34:25;;;;;;;2.53;0.90;;;1.10;99.90;;;;;;4996456;28;20436;-67
2023/01/27 08:36:52;;;;;;;0.90;0.80;;;1.30;99.90;;;;;;5002276;28;20440;-67
2023/01/27 08:39:18;;;;;;;1.10;1.00;;;1.30;99.90;;;;;;5004051;28;20437;-67
2023/01/27 08:41:45;;;;;;;1.70;1.30;;;1.40;99.90;;;;;;5004357;28;20433;-67
2023/01/27 08:44:12;;;;;;;0.80;0.80;;;1.40;99.90;;;;;;4993208;28;20436;-67
2023/01/27 08:46:39;;;;;;;4.72;1.13;;;1.50;99.90;;;;;;5011339;28;20428;-67
2023/01/27 08:49:14;;;;;;;0.55;0.55;;;1.60;99.90;;;;;;5006094;28;20439;-68
2023/01/27 08:51:41;;;;;;;0.30;0.30;;;1.70;99.90;;;;;;5003700;28;20428;-68
2023/01/27 08:54:08;;;;;;;0.40;0.40;;;1.70;99.90;;;;;;4999687;28;20430;-68
2023/01/27 08:56:35;;;;;;;0.93;0.82;;;1.80;99.90;;;;;;4992200;28;20433;-68
2023/01/27 08:59:02;;;;;;;1.50;0.88;;;2.00;99.90;;;;;;4993514;28;20969;-68
2023/01/27 09:01:29;;;;;;;2.10;1.00;;;2.00;99.90;;;;;;5008452;28;20835;-68
2023/01/27 09:03:55;;;;;;;0.88;0.77;;;2.00;92.60;;;;;;4999511;28;20460;-68
2023/01/27 09:06:24;;;;;;;0.50;0.50;;;2.00;55.00;;;;;;5004324;28;20432;-68
2023/01/27 09:09:07;;;;;;;0.82;0.65;;;2.00;15.50;;;;;;5004726;28;20434;-69
2023/01/27 09:11:42;;;;;;;6.50;1.10;;;2.00;1.00;;;;;;4999947;28;20449;-68
2023/01/27 09:14:12;;;;;;;0.80;0.73;;;1.90;1.00;;;;;;4994568;28;20438;-68
2023/01/27 09:16:42;;;;;;;1.40;0.70;;;1.90;1.00;;;;;;5002991;28;20440;-68
2023/01/27 09:19:16;;;;;;;0.77;0.77;;;1.90;1.00;;;;;;5003959;28;20927;-68
2023/01/27 09:21:43;;;;;;;4.10;1.90;;;1.90;1.00;;;;;;4999908;28;20507;-68
2023/01/27 09:24:12;;;;;;;4.80;2.10;;;1.80;1.00;;;;;;4998497;28;20441;-68
2023/01/27 09:26:38;;;;;;;1.00;1.00;;;1.80;1.00;;;;;;5000442;28;21122;-68
2023/01/27 09:29:05;;;;;;;4.85;2.20;;;1.80;1.00;;;;;;4994983;28;20455;-68
2023/01/27 09:31:32;;;;;;;2.05;0.93;;;1.90;1.00;;;;;;4998303;28;20460;-68
2023/01/27 09:33:59;;;;;;;1.20;0.90;;;1.90;99.90;;;;;;4995687;28;20498;-68
2023/01/27 09:36:27;;;;;;;1.20;1.10;;;1.90;99.90;;;;;;5004371;28;20443;-68
2023/01/27 09:39:01;;;;;;;0.50;0.50;;;2.00;99.90;;;;;;5000431;28;20499;-68
2023/01/27 09:41:54;;;;;;;1.27;1.27;;;2.00;99.90;;;;;;4996498;28;20448;-68
2023/01/27 09:44:43;;;;;;;0.70;0.55;;;2.10;99.90;;;;;;5000040;28;20440;-68
2023/01/27 09:47:47;;;;;;;0.80;0.80;;;2.10;99.90;;;;;;4995636;28;20516;-68
2023/01/27 09:50:43;;;;;;;2.17;1.98;;;2.30;99.90;;;;;;4988352;28;21048;-68
2023/01/27 09:53:28;;;;;;;8.48;2.03;;;2.30;99.90;;;;;;4997123;28;20436;-69
2023/01/27 09:56:03;;;;;;;1.73;1.13;;;2.30;99.90;;;;;;5003373;28;20568;-69
2023/01/27 09:59:11;;;;;;;1.20;1.20;;;2.40;99.90;;;;;;5002714;28;20430;-69
2023/01/27 10:02:06;;;;;;;1.17;1.08;;;2.40;99.90;;;;;;5020490;28;20544;-68
2023/01/27 10:05:00;;;;;;;0.93;0.90;;;2.50;99.90;;;;;;5000931;28;20428;-69
2023/01/27 10:08:08;;;;;;;1.35;1.05;;;2.50;99.90;;;;;;5009205;28;20942;-69
2023/01/27 10:11:07;;;;;;;1.55;0.75;;;2.50;99.90;;;;;;5002447;28;20452;-69
2023/01/27 10:14:03;;;;;;;0.90;0.70;;;2.50;99.90;;;;;;4998015;28;20451;-68
2023/01/27 10:17:04;;;;;;;1.23;1.15;;;2.50;99.90;;;;;;5007075;28;20436;-69
2023/01/27 10:19:51;;;;;;;0.90;0.80;;;2.60;99.90;;;;;;4997511;28;20819;-70
2023/01/27 10:22:51;;;;;;;0.57;0.57;;;2.50;99.90;;;;;;4994875;28;20442;-70
2023/01/27 10:25:36;;;;;;;1.15;1.13;;;2.50;99.90;;;;;;4997523;28;20941;-70
2023/01/27 10:28:13;;;;;;;0.63;0.63;;;2.30;99.90;;;;;;4996364;28;20526;-70
2023/01/27 10:30:55;;;;;;;1.13;1.13;;;2.20;99.90;;;;;;4995882;28;20446;-69
2023/01/27 10:33:45;;;;;;;0.88;0.88;;;2.20;99.90;;;;;;5001800;28;20428;-71
2023/01/27 10:36:28;;;;;;;0.63;0.63;;;2.10;99.90;;;;;;5002493;28;20440;-69
2023/01/27 10:39:40;;;;;;;0.55;0.55;;;2.20;99.90;;;;;;5013787;28;20501;-69
2023/01/27 10:42:32;;;;;;;1.00;0.73;;;2.10;99.90;;;;;;5001763;28;20436;-69
2023/01/27 10:45:23;;;;;;;0.70;0.63;;;2.00;99.90;;;;;;4995212;28;20432;-69
2023/01/27 10:48:12;;;;;;;1.38;1.15;;;2.00;99.90;;;;;;5003395;28;20494;-69
2023/01/27 10:50:49;;;;;;;0.50;0.50;;;2.10;99.90;;;;;;4993143;28;20521;-69
2023/01/27 10:53:23;;;;;;;0.68;0.68;;;2.10;99.90;;;;;;5000225;28;20813;-69
2023/01/27 10:56:18;;;;;;;0.40;0.40;;;2.10;99.90;;;;;;5000787;28;20442;-69
2023/01/27 10:58:55;;;;;;;0.45;0.45;;;2.20;99.90;;;;;;5001335;28;20436;-69
2023/01/27 11:01:36;;;;;;;0.90;0.52;;;2.30;99.90;;;;;;4992530;28;20432;-68
2023/01/27 11:04:14;;;;;;;0.55;0.55;;;2.40;99.90;;;;;;4989274;28;20514;-69
2023/01/27 11:06:44;;;;;;;0.63;0.47;;;2.50;99.90;;;;;;4993703;28;20428;-70
2023/01/27 11:09:26;;;;;;;0.50;0.50;;;2.60;99.90;;;;;;5004387;28;20426;-69
2023/01/27 11:11:59;;;;;;;0.70;0.70;;;2.60;99.90;;;;;;4997643;28;20438;-70
2023/01/27 11:14:36;;;;;;;0.50;0.50;;;2.70;99.90;;;;;;4998406;28;20440;-70
2023/01/27 11:17:24;;;;;;;0.43;0.43;;;2.80;99.90;;;;;;4996722;28;20460;-69
2023/01/27 11:20:25;;;;;;;0.68;0.68;;;2.90;99.90;;;;;;4987790;28;20448;-70
2023/01/27 11:23:17;;;;;;;0.47;0.45;;;3.20;99.90;;;;;;4999361;28;20970;-70
2023/01/27 11:26:15;;;;;;;0.65;0.65;;;3.40;99.90;;;;;;5000130;28;20499;-70
2023/01/27 11:29:17;;;;;;;0.50;0.50;;;3.50;99.90;;;;;;5024381;28;20462;-70
2023/01/27 11:31:51;;;;;;;0.50;0.32;;;3.60;99.90;;;;;;5015655;28;20529;-69
2023/01/27 11:34:52;;;;;;;1.20;0.82;;;3.70;99.90;;;;;;5006942;28;20440;-70
2023/01/27 11:37:24;;;;;;;0.60;0.60;;;3.70;99.90;;;;;;4994818;28;21179;-71
2023/01/27 11:39:51;;;;;;;1.05;1.05;;;3.70;99.90;;;;;;4999887;28;21227;-69
2023/01/27 11:42:18;;;;;;;1.30;1.10;;;3.60;99.90;;;;;;4992084;28;20448;-69
2023/01/27 11:44:45;;;;;;;0.50;0.50;;;3.60;99.90;;;;;;4997942;28;20981;-69
2023/01/27 11:47:27;;;;;;;0.70;0.60;;;3.60;99.90;;;;;;5004867;28;20894;-70
2023/01/27 11:49:56;;;;;;;0.70;0.70;;;3.80;99.90;;;;;;4998689;28;20434;-68
2023/01/27 11:52:27;;;;;;;0.60;0.60;;;3.80;99.90;;;;;;4996173;28;21049;-70
2023/01/27 11:55:16;;;;;;;0.40;0.40;;;3.80;99.90;;;;;;5002918;28;20449;-70
2023/01/27 11:57:50;;;;;;;0.38;0.38;;;3.80;99.90;;;;;;5000935;28;20915;-70
2023/01/27 12:00:36;;;;;;;0.30;0.30;;;4.00;99.90;;;;;;5004097;28;20443;-70
2023/01/27 12:03:12;;;;;;;0.40;0.40;;;4.10;99.90;;;;;;5002453;28;20436;-70
2023/01/27 12:06:03;;;;;;;0.43;0.35;;;4.20;99.90;;;;;;4993505;28;20436;-70
2023/01/27 12:08:44;;;;;;;0.82;0.82;;;4.10;99.90;;;;;;5006727;28;20436;-70
2023/01/27 12:11:38;;;;;;;1.00;0.90;;;4.00;99.90;;;;;;4995521;28;20963;-69
2023/01/27 12:14:05;;;;;;;0.70;0.70;;;3.90;99.90;;;;;;5000692;28;20499;-68
2023/01/27 12:16:50;;;;;;;0.52;0.52;;;3.80;99.90;;;;;;5002977;28;20430;-70
2023/01/27 12:19:33;;;;;;;0.70;0.70;;;3.70;99.90;;;;;;5000753;28;20773;-70
2023/01/27 12:22:23;;;;;;;0.52;0.52;;;3.70;99.90;;;;;;4994797;28;20434;-69
2023/01/27 12:24:56;;;;;;;1.20;1.10;;;3.70;99.90;;;;;;4998279;28;20429;-68
2023/01/27 12:27:26;;;;;;;0.80;0.70;;;3.70;99.90;;;;;;5000208;28;20813;-68
2023/01/27 12:30:05;;;;;;;1.83;0.65;;;3.60;99.90;;;;;;5001757;28;20438;-68
2023/01/27 12:32:45;;;;;;;0.45;0.45;;;3.60;99.90;;;;;;5012626;28;20433;-68
2023/01/27 12:35:31;;;;;;;1.00;0.77;;;3.70;99.90;;;;;;4996558;28;20509;-69
2023/01/27 12:38:12;;;;;;;0.70;0.65;;;3.70;99.90;;;;;;4991156;28;21015;-69
2023/01/27 12:40:45;;;;;;;0.70;0.70;;;3.70;99.90;;;;;;4998585;28;20777;-69
2023/01/27 12:43:20;;;;;;;2.30;1.10;;;3.80;99.90;;;;;;5008026;28;20434;-70
2023/01/27 12:46:10;;;;;;;0.80;0.80;;;3.90;99.90;;;;;;4993821;28;20436;-70
2023/01/27 12:49:05;;;;;;;1.10;0.43;;;4.00;99.90;;;;;;5000864;28;20522;-69
2023/01/27 12:51:44;;;;;;;1.70;0.55;;;4.10;99.90;;;;;;5004837;28;20438;-70
2023/01/27 12:54:31;;;;;;;1.20;0.40;;;4.00;99.90;;;;;;4993184;28;20432;-69
2023/01/27 12:57:03;;;;;;;0.50;0.50;;;4.00;99.90;;;;;;4992136;28;20438;-70
2023/01/27 12:59:30;;;;;;;0.60;0.53;;;4.00;99.90;;;;;;4997542;28;20437;-70
2023/01/27 13:02:16;;;;;;;0.70;0.70;;;4.00;99.90;;;;;;5000897;28;20592;-70
2023/01/27 13:04:53;;;;;;;0.45;0.45;;;4.10;99.90;;;;;;5001564;28;20456;-70
2023/01/27 13:07:28;;;;;;;3.75;2.47;;;4.20;99.90;;;;;;4991548;28;20434;-69
2023/01/27 13:09:58;;;;;;;0.77;0.77;;;4.30;99.90;;;;;;5000548;28;20435;-69
2023/01/27 13:12:31;;;;;;;0.55;0.55;;;4.30;99.90;;;;;;4997694;28;20438;-70
2023/01/27 13:15:13;;;;;;;0.80;0.80;;;4.30;99.90;;;;;;4998759;28;22789;-72
2023/01/27 13:17:47;;;;;;;0.52;0.52;;;4.40;99.90;;;;;;5013751;28;20448;-70
2023/01/27 13:20:21;;;;;;;0.70;0.70;;;4.50;99.90;;;;;;5012139;28;20488;-69
2023/01/27 13:23:21;;;;;;;0.30;0.30;;;4.50;99.90;;;;;;5004733;28;20475;-69
2023/01/27 13:25:53;;;;;;;0.60;0.60;;;4.40;99.90;;;;;;5005889;28;20855;-70
2023/01/27 13:28:28;;;;;;;0.70;0.70;;;4.40;99.90;;;;;;5019028;28;20438;-71
2023/01/27 13:31:05;;;;;;;0.50;0.50;;;4.30;99.90;;;;;;5001647;28;20561;-71
2023/01/27 13:33:53;;;;;;;0.70;0.70;;;4.20;99.90;;;;;;5001918;28;20434;-70
2023/01/27 13:37:01;;;;;;;0.45;0.45;;;4.20;99.90;;;;;;4997044;28;20821;-69
2023/01/27 13:40:11;;;;;;;0.70;0.57;;;4.20;99.90;;;;;;5001324;28;20451;-70
2023/01/27 13:43:06;;;;;;;0.70;0.57;;;4.20;99.90;;;;;;5005551;28;20881;-71
2023/01/27 13:45:40;;;;;;;0.70;0.70;;;4.30;99.90;;;;;;4998629;28;20804;-69
2023/01/27 13:48:16;;;;;;;0.93;0.57;;;4.40;99.90;;;;;;5001610;28;20559;-70
2023/01/27 13:51:14;;;;;;;1.70;0.68;;;4.40;99.90;;;;;;4998993;28;20493;-70
2023/01/27 13:53:42;;;;;;;0.52;0.52;;;4.40;99.90;;;;;;4996325;28;20434;-70
2023/01/27 13:56:19;;;;;;;0.77;0.77;;;4.40;99.90;;;;;;4995653;28;20549;-70
2023/01/27 13:59:12;;;;;;;4.00;1.97;;;4.40;99.90;;;;;;5006031;28;20478;-70
2023/01/27 14:01:47;;;;;;;0.10;0.10;;;4.30;99.90;;;;;;5020445;28;20435;-70